Airfield :
LOGIN :

Register | Disclaimer

   EN    FR    IT 

 










Legend :    VFR   Marginal VFR   IFR   Intensive IFR   Very Intensive IFR
Visi :
Ceiling :
>= 8 km
>= 3000ft
5 to 8 km
1000 to 3000 ft
1500m to 5 km
500 to 1000 ft
800 to 1500m
200 to 500 ft
< 800m
< 200 ft
Symbols :   Thunderstorms  Fog  Heavy snow  Heavy precipitations  Wind > 20 kt
SIGMETs :     Misc.  Thunderstorms  Icing  Turbulence  Mountain Waves  Volcanic Ashes







- Airport Elevation : 157 ft
- IATA code : LIL
- Download approach charts


LFQQ - Lille Lesquin

CURRENT METAR :
  • 230500Z AUTO 18020KT CAVOK 13/06 Q0995 BECMG 20025G35KT

EXPIRED METARs :
  • 230430Z AUTO 17018KT CAVOK 13/05 Q0995 BECMG 20025G35KT
  • 230400Z AUTO 17019G31KT CAVOK 13/05 Q0996 NOSIG
  • 230330Z AUTO 18019KT CAVOK 12/05 Q0996 BECMG 20025G35KT
  • 230300Z AUTO 17020KT CAVOK 13/05 Q0996 BECMG 20025G35KT
  • 230230Z AUTO 18020KT CAVOK 13/05 Q0997 BECMG 20025G35KT

TAF TAF LFQQ
Valid from the 23 at 00:00 until the 24 at 06:00 UTC


222300Z 2300/2406 18015G25KT CAVOK
BECMG 2300/2303 20025G35KT CAVOK
TEMPO 2309/2312 4000 RA BKN013 BKN030CB
FM231200 25012KT 9999 BKN030
BECMG 2320/2323 18010KT
BECMG 2401/2402 18020G30KT BKN008
TEMPO 2402/2405 3000 RA BKN008 BKN020TCU
ATIS : +33 3 20 16 19 54
No reported NOTAMs for that airfield.
2 SIGMETs reported for the Paris FIR (LFFF) :
 
Severe turbulence
LFFF SIGMET 2 VALID 230500/230900 LFPW
LFFF PARIS FIR/UIR SEV TURB OBS SE OF LINE N4700 E00430 - N4630 E00400 SFC/FL080 STNR NC=
Severe turbulence
LFFF SIGMET 1 VALID 230300/230700 LFPW
LFFF PARIS FIR/UIR SEV TURB FCST NW OF LINE N5100 E00245 - N4800 W00015 SFC/FL060 MOV NE 30KT NC=



MET'MAP, your aeronautical weather chart ! - Copyright ORBIFLY December 2007 - Disclaimer

ORBIFLY MET'MAP TEAM :

Programming & Development : Alexandra Zaïnal
Concept & Development : Baudouin d'Aumeries
Co-Development & Prog : Marc-Olivier Méhu
Technical & hardware support : Manuel Goepfert

Contact : metmap@orbifly.com




SOURCES & CREDITS :

   NOAA